sensor_id;sensor_type;location;lat;lon;timestamp;temperature;humidity
25825;DHT22;13658;44.534;18.694;2023-06-14T00:02:23;14.10;99.90
25825;DHT22;13658;44.534;18.694;2023-06-14T00:04:50;14.00;99.90
25825;DHT22;13658;44.534;18.694;2023-06-14T00:07:17;13.80;99.90
25825;DHT22;13658;44.534;18.694;2023-06-14T00:09:44;13.80;99.90
25825;DHT22;13658;44.534;18.694;2023-06-14T00:12:10;13.80;99.90
25825;DHT22;13658;44.534;18.694;2023-06-14T00:14:36;13.60;99.90
25825;DHT22;13658;44.534;18.694;2023-06-14T00:17:03;13.60;99.90
25825;DHT22;13658;44.534;18.694;2023-06-14T00:19:29;13.70;99.90
25825;DHT22;13658;44.534;18.694;2023-06-14T00:21:58;13.70;99.90
25825;DHT22;13658;44.534;18.694;2023-06-14T00:24:24;13.80;99.90
25825;DHT22;13658;44.534;18.694;2023-06-14T00:26:51;13.70;99.90
25825;DHT22;13658;44.534;18.694;2023-06-14T00:29:17;13.70;99.90
25825;DHT22;13658;44.534;18.694;2023-06-14T00:31:43;13.70;99.90
25825;DHT22;13658;44.534;18.694;2023-06-14T00:34:09;13.70;99.90
25825;DHT22;13658;44.534;18.694;2023-06-14T00:36:36;13.60;99.90
25825;DHT22;13658;44.534;18.694;2023-06-14T00:39:02;13.60;99.90
25825;DHT22;13658;44.534;18.694;2023-06-14T00:41:29;13.60;99.90
25825;DHT22;13658;44.534;18.694;2023-06-14T00:43:55;13.60;99.90
25825;DHT22;13658;44.534;18.694;2023-06-14T00:46:22;13.60;99.90
25825;DHT22;13658;44.534;18.694;2023-06-14T00:48:49;13.50;99.90
25825;DHT22;13658;44.534;18.694;2023-06-14T00:51:15;13.50;99.90
25825;DHT22;13658;44.534;18.694;2023-06-14T00:53:42;13.50;99.90
25825;DHT22;13658;44.534;18.694;2023-06-14T00:56:13;13.50;99.90
25825;DHT22;13658;44.534;18.694;2023-06-14T00:58:42;13.50;99.90
25825;DHT22;13658;44.534;18.694;2023-06-14T01:01:08;13.50;99.90
25825;DHT22;13658;44.534;18.694;2023-06-14T01:03:35;13.50;99.90
25825;DHT22;13658;44.534;18.694;2023-06-14T01:09:16;13.40;99.90
25825;DHT22;13658;44.534;18.694;2023-06-14T01:12:02;13.50;99.90
25825;DHT22;13658;44.534;18.694;2023-06-14T01:14:31;13.40;99.90
25825;DHT22;13658;44.534;18.694;2023-06-14T01:16:59;13.50;99.90
25825;DHT22;13658;44.534;18.694;2023-06-14T01:19:26;13.30;99.90
25825;DHT22;13658;44.534;18.694;2023-06-14T01:21:57;13.30;99.90
25825;DHT22;13658;44.534;18.694;2023-06-14T01:24:25;13.20;99.90
25825;DHT22;13658;44.534;18.694;2023-06-14T01:26:55;13.20;99.90
25825;DHT22;13658;44.534;18.694;2023-06-14T01:29:23;13.20;99.90
25825;DHT22;13658;44.534;18.694;2023-06-14T01:31:53;13.30;99.90
25825;DHT22;13658;44.534;18.694;2023-06-14T01:34:20;13.30;99.90
25825;DHT22;13658;44.534;18.694;2023-06-14T01:36:52;13.30;99.90
25825;DHT22;13658;44.534;18.694;2023-06-14T01:39:20;13.40;99.90
25825;DHT22;13658;44.534;18.694;2023-06-14T01:41:48;13.50;99.90
25825;DHT22;13658;44.534;18.694;2023-06-14T01:44:17;13.50;99.90
25825;DHT22;13658;44.534;18.694;2023-06-14T01:46:45;13.50;99.90
25825;DHT22;13658;44.534;18.694;2023-06-14T01:49:11;13.50;99.90
25825;DHT22;13658;44.534;18.694;2023-06-14T01:51:37;13.50;99.90
25825;DHT22;13658;44.534;18.694;2023-06-14T01:54:03;13.60;99.90
25825;DHT22;13658;44.534;18.694;2023-06-14T01:56:30;13.60;99.90
25825;DHT22;13658;44.534;18.694;2023-06-14T01:58:58;13.60;99.90
25825;DHT22;13658;44.534;18.694;2023-06-14T02:01:25;13.60;99.90
25825;DHT22;13658;44.534;18.694;2023-06-14T02:03:52;13.50;99.90
25825;DHT22;13658;44.534;18.694;2023-06-14T02:06:19;13.50;99.90
25825;DHT22;13658;44.534;18.694;2023-06-14T02:08:45;13.50;99.90
25825;DHT22;13658;44.534;18.694;2023-06-14T02:11:11;13.50;99.90
25825;DHT22;13658;44.534;18.694;2023-06-14T02:13:37;13.50;99.90
25825;DHT22;13658;44.534;18.694;2023-06-14T02:16:03;13.60;99.90
25825;DHT22;13658;44.534;18.694;2023-06-14T02:18:29;13.60;99.90
25825;DHT22;13658;44.534;18.694;2023-06-14T02:20:56;13.50;99.90
25825;DHT22;13658;44.534;18.694;2023-06-14T02:23:23;13.40;99.90
25825;DHT22;13658;44.534;18.694;2023-06-14T02:25:50;13.40;99.90
25825;DHT22;13658;44.534;18.694;2023-06-14T02:28:16;13.40;99.90
25825;DHT22;13658;44.534;18.694;2023-06-14T02:30:42;13.30;99.90
25825;DHT22;13658;44.534;18.694;2023-06-14T02:33:08;13.30;99.90
25825;DHT22;13658;44.534;18.694;2023-06-14T02:35:39;13.40;99.90
25825;DHT22;13658;44.534;18.694;2023-06-14T02:38:05;13.50;99.90
25825;DHT22;13658;44.534;18.694;2023-06-14T02:40:31;13.50;99.90
25825;DHT22;13658;44.534;18.694;2023-06-14T02:42:57;13.50;99.90
25825;DHT22;13658;44.534;18.694;2023-06-14T02:45:23;13.50;99.90
25825;DHT22;13658;44.534;18.694;2023-06-14T02:47:49;13.60;99.90
25825;DHT22;13658;44.534;18.694;2023-06-14T02:50:15;13.60;99.90
25825;DHT22;13658;44.534;18.694;2023-06-14T02:52:42;13.60;99.90
25825;DHT22;13658;44.534;18.694;2023-06-14T02:55:10;13.50;99.90
25825;DHT22;13658;44.534;18.694;2023-06-14T02:57:36;13.50;99.90
25825;DHT22;13658;44.534;18.694;2023-06-14T03:00:03;13.50;99.90
25825;DHT22;13658;44.534;18.694;2023-06-14T03:02:33;13.40;99.90
25825;DHT22;13658;44.534;18.694;2023-06-14T03:04:59;13.40;99.90
25825;DHT22;13658;44.534;18.694;2023-06-14T03:07:29;13.40;99.90
25825;DHT22;13658;44.534;18.694;2023-06-14T03:09:56;13.30;99.90
25825;DHT22;13658;44.534;18.694;2023-06-14T03:12:22;13.30;99.90
25825;DHT22;13658;44.534;18.694;2023-06-14T03:14:49;13.30;99.90
25825;DHT22;13658;44.534;18.694;2023-06-14T03:17:19;13.30;99.90
25825;DHT22;13658;44.534;18.694;2023-06-14T03:19:45;13.30;99.90
25825;DHT22;13658;44.534;18.694;2023-06-14T03:22:14;13.30;99.90
25825;DHT22;13658;44.534;18.694;2023-06-14T03:24:40;13.30;99.90
25825;DHT22;13658;44.534;18.694;2023-06-14T03:27:11;13.40;99.90
25825;DHT22;13658;44.534;18.694;2023-06-14T03:29:42;13.40;99.90
25825;DHT22;13658;44.534;18.694;2023-06-14T03:32:09;13.50;99.90
25825;DHT22;13658;44.534;18.694;2023-06-14T03:34:42;13.50;99.90
25825;DHT22;13658;44.534;18.694;2023-06-14T03:37:14;13.50;99.90
25825;DHT22;13658;44.534;18.694;2023-06-14T03:39:40;13.60;99.90
25825;DHT22;13658;44.534;18.694;2023-06-14T03:42:14;13.60;99.90
25825;DHT22;13658;44.534;18.694;2023-06-14T03:44:43;13.70;99.90
25825;DHT22;13658;44.534;18.694;2023-06-14T03:47:10;13.70;99.90
25825;DHT22;13658;44.534;18.694;2023-06-14T03:49:36;13.80;99.90
25825;DHT22;13658;44.534;18.694;2023-06-14T03:52:03;13.80;99.90
25825;DHT22;13658;44.534;18.694;2023-06-14T03:54:30;13.80;99.90
25825;DHT22;13658;44.534;18.694;2023-06-14T03:56:59;13.90;99.90
25825;DHT22;13658;44.534;18.694;2023-06-14T03:59:26;13.90;99.90
25825;DHT22;13658;44.534;18.694;2023-06-14T04:01:54;14.00;99.90
25825;DHT22;13658;44.534;18.694;2023-06-14T04:04:20;14.10;99.90
25825;DHT22;13658;44.534;18.694;2023-06-14T04:06:49;14.10;99.90
25825;DHT22;13658;44.534;18.694;2023-06-14T04:09:16;14.20;99.90
25825;DHT22;13658;44.534;18.694;2023-06-14T04:11:44;14.20;99.90
25825;DHT22;13658;44.534;18.694;2023-06-14T04:14:10;14.40;99.90
25825;DHT22;13658;44.534;18.694;2023-06-14T04:16:37;14.40;99.90
25825;DHT22;13658;44.534;18.694;2023-06-14T04:19:03;14.50;99.90
25825;DHT22;13658;44.534;18.694;2023-06-14T04:21:29;14.50;99.90
25825;DHT22;13658;44.534;18.694;2023-06-14T04:23:58;14.50;99.90
25825;DHT22;13658;44.534;18.694;2023-06-14T04:26:28;14.70;99.90
25825;DHT22;13658;44.534;18.694;2023-06-14T04:28:56;14.70;99.90
25825;DHT22;13658;44.534;18.694;2023-06-14T04:31:29;14.90;99.90
25825;DHT22;13658;44.534;18.694;2023-06-14T04:33:56;14.90;99.90
25825;DHT22;13658;44.534;18.694;2023-06-14T04:36:22;15.10;99.90
25825;DHT22;13658;44.534;18.694;2023-06-14T04:38:49;15.10;99.90
25825;DHT22;13658;44.534;18.694;2023-06-14T04:41:16;15.20;99.90
25825;DHT22;13658;44.534;18.694;2023-06-14T04:43:44;15.20;99.90
25825;DHT22;13658;44.534;18.694;2023-06-14T04:46:15;15.30;99.90
25825;DHT22;13658;44.534;18.694;2023-06-14T04:48:43;15.40;99.90
25825;DHT22;13658;44.534;18.694;2023-06-14T04:51:10;15.40;99.90
25825;DHT22;13658;44.534;18.694;2023-06-14T04:53:37;15.50;99.90
25825;DHT22;13658;44.534;18.694;2023-06-14T04:56:04;15.60;99.90
25825;DHT22;13658;44.534;18.694;2023-06-14T04:58:32;15.60;99.90
25825;DHT22;13658;44.534;18.694;2023-06-14T05:00:59;15.70;99.90
25825;DHT22;13658;44.534;18.694;2023-06-14T05:03:25;15.80;99.90
25825;DHT22;13658;44.534;18.694;2023-06-14T05:05:52;15.90;99.90
25825;DHT22;13658;44.534;18.694;2023-06-14T05:08:21;16.00;99.90
25825;DHT22;13658;44.534;18.694;2023-06-14T05:10:50;16.10;99.90
25825;DHT22;13658;44.534;18.694;2023-06-14T05:13:16;16.20;99.90
25825;DHT22;13658;44.534;18.694;2023-06-14T05:15:44;16.20;99.90
25825;DHT22;13658;44.534;18.694;2023-06-14T05:18:11;16.20;99.90
25825;DHT22;13658;44.534;18.694;2023-06-14T05:20:39;16.30;99.90
25825;DHT22;13658;44.534;18.694;2023-06-14T05:23:05;16.30;99.90
25825;DHT22;13658;44.534;18.694;2023-06-14T05:25:31;16.30;99.90
25825;DHT22;13658;44.534;18.694;2023-06-14T05:27:57;16.20;99.90
25825;DHT22;13658;44.534;18.694;2023-06-14T05:30:23;16.30;99.90
25825;DHT22;13658;44.534;18.694;2023-06-14T05:32:49;16.20;99.90
25825;DHT22;13658;44.534;18.694;2023-06-14T05:35:16;16.20;99.90
25825;DHT22;13658;44.534;18.694;2023-06-14T05:37:42;16.20;99.90
25825;DHT22;13658;44.534;18.694;2023-06-14T05:40:08;16.20;99.90
25825;DHT22;13658;44.534;18.694;2023-06-14T05:42:34;16.20;99.90
25825;DHT22;13658;44.534;18.694;2023-06-14T05:45:00;16.30;99.90
25825;DHT22;13658;44.534;18.694;2023-06-14T05:47:27;16.20;99.90
25825;DHT22;13658;44.534;18.694;2023-06-14T05:49:53;16.30;99.90
25825;DHT22;13658;44.534;18.694;2023-06-14T05:52:22;16.30;99.90
25825;DHT22;13658;44.534;18.694;2023-06-14T05:54:48;16.30;99.90
25825;DHT22;13658;44.534;18.694;2023-06-14T05:57:16;16.40;99.90
25825;DHT22;13658;44.534;18.694;2023-06-14T05:59:43;16.50;99.90
25825;DHT22;13658;44.534;18.694;2023-06-14T06:02:09;16.60;99.90
25825;DHT22;13658;44.534;18.694;2023-06-14T06:04:35;16.70;99.90
25825;DHT22;13658;44.534;18.694;2023-06-14T06:07:02;16.80;99.90
25825;DHT22;13658;44.534;18.694;2023-06-14T06:09:28;16.90;99.90
25825;DHT22;13658;44.534;18.694;2023-06-14T06:11:54;17.00;99.90
25825;DHT22;13658;44.534;18.694;2023-06-14T06:14:21;17.10;99.90
25825;DHT22;13658;44.534;18.694;2023-06-14T06:16:47;17.00;99.90
25825;DHT22;13658;44.534;18.694;2023-06-14T06:19:13;17.00;99.90
25825;DHT22;13658;44.534;18.694;2023-06-14T06:21:39;17.10;99.90
25825;DHT22;13658;44.534;18.694;2023-06-14T06:24:05;17.10;99.90
25825;DHT22;13658;44.534;18.694;2023-06-14T06:26:32;17.10;99.90
25825;DHT22;13658;44.534;18.694;2023-06-14T06:28:58;17.10;99.90
25825;DHT22;13658;44.534;18.694;2023-06-14T06:31:24;17.10;99.90
25825;DHT22;13658;44.534;18.694;2023-06-14T06:33:51;17.20;99.90
25825;DHT22;13658;44.534;18.694;2023-06-14T06:36:17;17.30;99.90
25825;DHT22;13658;44.534;18.694;2023-06-14T06:38:43;17.40;99.90
25825;DHT22;13658;44.534;18.694;2023-06-14T06:41:09;17.50;99.90
25825;DHT22;13658;44.534;18.694;2023-06-14T06:43:35;17.60;99.90
25825;DHT22;13658;44.534;18.694;2023-06-14T06:46:01;17.70;99.90
25825;DHT22;13658;44.534;18.694;2023-06-14T06:48:28;17.80;99.90
25825;DHT22;13658;44.534;18.694;2023-06-14T06:50:56;17.70;99.90
25825;DHT22;13658;44.534;18.694;2023-06-14T06:53:22;17.80;99.90
25825;DHT22;13658;44.534;18.694;2023-06-14T06:55:48;17.90;99.90
25825;DHT22;13658;44.534;18.694;2023-06-14T06:58:15;17.90;99.90
25825;DHT22;13658;44.534;18.694;2023-06-14T07:00:41;18.00;99.90
25825;DHT22;13658;44.534;18.694;2023-06-14T07:03:07;18.00;99.90
25825;DHT22;13658;44.534;18.694;2023-06-14T07:05:33;18.10;99.90
25825;DHT22;13658;44.534;18.694;2023-06-14T07:08:00;18.10;99.90
25825;DHT22;13658;44.534;18.694;2023-06-14T07:10:26;18.10;99.90
25825;DHT22;13658;44.534;18.694;2023-06-14T07:12:52;18.20;99.90
25825;DHT22;13658;44.534;18.694;2023-06-14T07:15:18;18.30;99.90
25825;DHT22;13658;44.534;18.694;2023-06-14T07:17:44;18.30;99.90
25825;DHT22;13658;44.534;18.694;2023-06-14T07:20:10;18.40;99.90
25825;DHT22;13658;44.534;18.694;2023-06-14T07:22:40;18.40;99.90
25825;DHT22;13658;44.534;18.694;2023-06-14T07:25:08;18.50;99.90
25825;DHT22;13658;44.534;18.694;2023-06-14T07:27:34;18.50;99.90
25825;DHT22;13658;44.534;18.694;2023-06-14T07:30:00;18.50;99.90
25825;DHT22;13658;44.534;18.694;2023-06-14T07:32:26;18.60;99.90
25825;DHT22;13658;44.534;18.694;2023-06-14T07:34:52;18.60;99.90
25825;DHT22;13658;44.534;18.694;2023-06-14T07:37:18;18.70;99.90
25825;DHT22;13658;44.534;18.694;2023-06-14T07:39:44;18.70;99.90
25825;DHT22;13658;44.534;18.694;2023-06-14T07:42:10;18.70;99.90
25825;DHT22;13658;44.534;18.694;2023-06-14T07:44:36;18.70;99.90
25825;DHT22;13658;44.534;18.694;2023-06-14T07:47:02;18.60;99.90
25825;DHT22;13658;44.534;18.694;2023-06-14T07:49:28;18.70;99.90
25825;DHT22;13658;44.534;18.694;2023-06-14T07:51:54;18.80;99.90
25825;DHT22;13658;44.534;18.694;2023-06-14T07:54:20;18.90;99.90
25825;DHT22;13658;44.534;18.694;2023-06-14T07:56:50;19.10;99.90
25825;DHT22;13658;44.534;18.694;2023-06-14T07:59:16;19.10;99.90
25825;DHT22;13658;44.534;18.694;2023-06-14T08:01:43;19.10;99.90
25825;DHT22;13658;44.534;18.694;2023-06-14T08:04:13;19.10;99.90
25825;DHT22;13658;44.534;18.694;2023-06-14T08:06:39;19.00;99.90
25825;DHT22;13658;44.534;18.694;2023-06-14T08:09:10;19.00;99.90
25825;DHT22;13658;44.534;18.694;2023-06-14T08:11:37;19.00;99.90
25825;DHT22;13658;44.534;18.694;2023-06-14T08:14:03;19.10;99.90
25825;DHT22;13658;44.534;18.694;2023-06-14T08:16:29;19.20;99.90
25825;DHT22;13658;44.534;18.694;2023-06-14T08:18:55;19.20;99.90
25825;DHT22;13658;44.534;18.694;2023-06-14T08:21:22;19.20;99.90
25825;DHT22;13658;44.534;18.694;2023-06-14T08:23:48;19.20;99.90
25825;DHT22;13658;44.534;18.694;2023-06-14T08:26:14;19.20;99.90
25825;DHT22;13658;44.534;18.694;2023-06-14T08:28:40;19.20;99.90
25825;DHT22;13658;44.534;18.694;2023-06-14T08:31:08;19.10;99.90
25825;DHT22;13658;44.534;18.694;2023-06-14T08:33:34;19.10;99.90
25825;DHT22;13658;44.534;18.694;2023-06-14T08:36:00;19.10;99.90
25825;DHT22;13658;44.534;18.694;2023-06-14T08:38:26;19.20;99.90
25825;DHT22;13658;44.534;18.694;2023-06-14T08:40:52;19.20;99.90
25825;DHT22;13658;44.534;18.694;2023-06-14T08:43:35;19.30;99.90
25825;DHT22;13658;44.534;18.694;2023-06-14T08:46:08;19.40;99.90
25825;DHT22;13658;44.534;18.694;2023-06-14T08:48:50;19.50;99.90
25825;DHT22;13658;44.534;18.694;2023-06-14T08:51:22;19.60;99.90
25825;DHT22;13658;44.534;18.694;2023-06-14T08:53:53;19.60;99.90
25825;DHT22;13658;44.534;18.694;2023-06-14T08:56:27;19.70;99.90
25825;DHT22;13658;44.534;18.694;2023-06-14T08:58:57;19.80;99.90
25825;DHT22;13658;44.534;18.694;2023-06-14T09:01:27;19.90;99.90
25825;DHT22;13658;44.534;18.694;2023-06-14T09:03:53;19.90;99.90
25825;DHT22;13658;44.534;18.694;2023-06-14T09:06:21;19.90;99.90
25825;DHT22;13658;44.534;18.694;2023-06-14T09:08:49;20.00;99.90
25825;DHT22;13658;44.534;18.694;2023-06-14T09:11:17;20.10;99.90
25825;DHT22;13658;44.534;18.694;2023-06-14T09:13:46;20.20;99.90
25825;DHT22;13658;44.534;18.694;2023-06-14T09:16:12;20.30;99.90
25825;DHT22;13658;44.534;18.694;2023-06-14T09:21:11;20.50;99.90
25825;DHT22;13658;44.534;18.694;2023-06-14T09:23:42;20.60;99.90
25825;DHT22;13658;44.534;18.694;2023-06-14T09:26:10;20.70;99.90
25825;DHT22;13658;44.534;18.694;2023-06-14T09:28:40;21.00;99.90
25825;DHT22;13658;44.534;18.694;2023-06-14T09:31:07;21.00;99.90
25825;DHT22;13658;44.534;18.694;2023-06-14T09:33:35;21.10;99.90
25825;DHT22;13658;44.534;18.694;2023-06-14T09:36:01;21.20;99.90
25825;DHT22;13658;44.534;18.694;2023-06-14T09:38:27;21.40;99.90
25825;DHT22;13658;44.534;18.694;2023-06-14T09:40:57;21.30;99.90
25825;DHT22;13658;44.534;18.694;2023-06-14T09:43:23;21.40;99.90
25825;DHT22;13658;44.534;18.694;2023-06-14T09:45:54;21.40;99.90
25825;DHT22;13658;44.534;18.694;2023-06-14T09:48:20;21.50;99.90
25825;DHT22;13658;44.534;18.694;2023-06-14T09:50:47;21.50;99.90
25825;DHT22;13658;44.534;18.694;2023-06-14T09:53:15;21.50;99.90
25825;DHT22;13658;44.534;18.694;2023-06-14T09:55:41;21.70;99.90
25825;DHT22;13658;44.534;18.694;2023-06-14T09:58:09;21.70;99.90
25825;DHT22;13658;44.534;18.694;2023-06-14T10:00:36;21.70;99.90
25825;DHT22;13658;44.534;18.694;2023-06-14T10:03:12;21.70;99.90
25825;DHT22;13658;44.534;18.694;2023-06-14T10:05:42;21.70;99.90
25825;DHT22;13658;44.534;18.694;2023-06-14T10:08:13;21.60;99.90
25825;DHT22;13658;44.534;18.694;2023-06-14T10:10:39;21.70;99.90
25825;DHT22;13658;44.534;18.694;2023-06-14T10:13:07;21.80;99.90
25825;DHT22;13658;44.534;18.694;2023-06-14T10:15:48;21.90;99.90
25825;DHT22;13658;44.534;18.694;2023-06-14T10:24:14;22.00;99.90
25825;DHT22;13658;44.534;18.694;2023-06-14T10:26:53;22.20;99.90
25825;DHT22;13658;44.534;18.694;2023-06-14T10:29:20;22.30;99.90
25825;DHT22;13658;44.534;18.694;2023-06-14T10:31:50;22.20;99.90
25825;DHT22;13658;44.534;18.694;2023-06-14T10:34:28;22.60;99.90
25825;DHT22;13658;44.534;18.694;2023-06-14T10:37:06;22.70;99.90
25825;DHT22;13658;44.534;18.694;2023-06-14T10:39:39;23.10;99.90
25825;DHT22;13658;44.534;18.694;2023-06-14T10:42:07;22.90;99.90
25825;DHT22;13658;44.534;18.694;2023-06-14T10:44:37;23.20;99.90
25825;DHT22;13658;44.534;18.694;2023-06-14T10:47:07;23.50;99.90
25825;DHT22;13658;44.534;18.694;2023-06-14T10:49:41;23.70;99.90
25825;DHT22;13658;44.534;18.694;2023-06-14T10:52:09;23.70;99.90
25825;DHT22;13658;44.534;18.694;2023-06-14T10:55:02;23.30;99.90
25825;DHT22;13658;44.534;18.694;2023-06-14T10:57:33;23.30;99.90
25825;DHT22;13658;44.534;18.694;2023-06-14T11:00:00;23.20;99.90
25825;DHT22;13658;44.534;18.694;2023-06-14T11:05:15;23.20;99.90
25825;DHT22;13658;44.534;18.694;2023-06-14T11:10:37;22.80;99.90
25825;DHT22;13658;44.534;18.694;2023-06-14T11:13:04;23.00;99.90
25825;DHT22;13658;44.534;18.694;2023-06-14T11:15:31;22.90;99.90
25825;DHT22;13658;44.534;18.694;2023-06-14T11:18:04;23.10;99.90
25825;DHT22;13658;44.534;18.694;2023-06-14T11:20:34;23.20;99.90
25825;DHT22;13658;44.534;18.694;2023-06-14T11:23:01;23.40;99.90
25825;DHT22;13658;44.534;18.694;2023-06-14T11:25:27;23.60;99.90
25825;DHT22;13658;44.534;18.694;2023-06-14T11:27:56;23.70;99.90
25825;DHT22;13658;44.534;18.694;2023-06-14T11:30:23;23.80;99.90
25825;DHT22;13658;44.534;18.694;2023-06-14T11:32:50;23.60;99.90
25825;DHT22;13658;44.534;18.694;2023-06-14T11:35:18;23.50;99.90
25825;DHT22;13658;44.534;18.694;2023-06-14T11:37:44;23.60;99.90
25825;DHT22;13658;44.534;18.694;2023-06-14T11:40:11;23.50;99.90
25825;DHT22;13658;44.534;18.694;2023-06-14T11:42:39;23.50;99.90
25825;DHT22;13658;44.534;18.694;2023-06-14T11:45:10;23.60;99.90
25825;DHT22;13658;44.534;18.694;2023-06-14T11:47:38;23.90;99.90
25825;DHT22;13658;44.534;18.694;2023-06-14T11:50:07;24.10;99.90
25825;DHT22;13658;44.534;18.694;2023-06-14T11:52:37;24.10;99.90
25825;DHT22;13658;44.534;18.694;2023-06-14T11:55:05;24.20;99.90
25825;DHT22;13658;44.534;18.694;2023-06-14T11:57:36;24.20;99.90
25825;DHT22;13658;44.534;18.694;2023-06-14T12:00:08;24.00;99.90
25825;DHT22;13658;44.534;18.694;2023-06-14T12:02:38;23.90;99.90
25825;DHT22;13658;44.534;18.694;2023-06-14T12:05:06;24.10;99.90
25825;DHT22;13658;44.534;18.694;2023-06-14T12:07:38;23.90;99.90
25825;DHT22;13658;44.534;18.694;2023-06-14T12:10:08;23.90;99.90
25825;DHT22;13658;44.534;18.694;2023-06-14T12:12:38;23.80;99.90
25825;DHT22;13658;44.534;18.694;2023-06-14T12:15:05;23.80;99.90
25825;DHT22;13658;44.534;18.694;2023-06-14T12:17:36;23.70;99.90
25825;DHT22;13658;44.534;18.694;2023-06-14T12:20:11;23.50;99.90
25825;DHT22;13658;44.534;18.694;2023-06-14T12:22:59;23.60;99.90
25825;DHT22;13658;44.534;18.694;2023-06-14T12:25:35;23.50;99.90
25825;DHT22;13658;44.534;18.694;2023-06-14T12:28:07;23.50;99.90
25825;DHT22;13658;44.534;18.694;2023-06-14T12:30:35;23.60;99.90
25825;DHT22;13658;44.534;18.694;2023-06-14T12:33:02;23.80;99.90
25825;DHT22;13658;44.534;18.694;2023-06-14T12:35:28;23.70;99.90
25825;DHT22;13658;44.534;18.694;2023-06-14T12:37:54;23.80;99.90
25825;DHT22;13658;44.534;18.694;2023-06-14T12:40:21;23.60;99.90
25825;DHT22;13658;44.534;18.694;2023-06-14T12:42:47;23.50;99.90
25825;DHT22;13658;44.534;18.694;2023-06-14T12:45:13;23.30;99.90
25825;DHT22;13658;44.534;18.694;2023-06-14T12:47:39;23.20;99.90
25825;DHT22;13658;44.534;18.694;2023-06-14T12:50:06;23.20;99.90
25825;DHT22;13658;44.534;18.694;2023-06-14T12:52:32;23.40;99.90
25825;DHT22;13658;44.534;18.694;2023-06-14T12:55:03;23.50;99.90
25825;DHT22;13658;44.534;18.694;2023-06-14T12:57:29;23.70;99.90
25825;DHT22;13658;44.534;18.694;2023-06-14T12:59:55;23.80;99.90
25825;DHT22;13658;44.534;18.694;2023-06-14T13:02:21;23.80;99.90
25825;DHT22;13658;44.534;18.694;2023-06-14T13:04:49;23.80;99.90
25825;DHT22;13658;44.534;18.694;2023-06-14T13:07:15;23.70;99.90
25825;DHT22;13658;44.534;18.694;2023-06-14T13:09:42;23.80;99.90
25825;DHT22;13658;44.534;18.694;2023-06-14T13:12:10;24.00;99.90
25825;DHT22;13658;44.534;18.694;2023-06-14T13:14:37;24.20;99.90
25825;DHT22;13658;44.534;18.694;2023-06-14T13:17:03;24.20;99.90
25825;DHT22;13658;44.534;18.694;2023-06-14T13:19:30;24.20;99.90
25825;DHT22;13658;44.534;18.694;2023-06-14T13:21:56;24.10;99.90
25825;DHT22;13658;44.534;18.694;2023-06-14T13:24:22;24.30;99.90
25825;DHT22;13658;44.534;18.694;2023-06-14T13:26:48;24.10;99.90
25825;DHT22;13658;44.534;18.694;2023-06-14T13:29:14;24.20;99.90
25825;DHT22;13658;44.534;18.694;2023-06-14T13:31:41;24.20;99.90
25825;DHT22;13658;44.534;18.694;2023-06-14T13:34:07;24.10;99.90
25825;DHT22;13658;44.534;18.694;2023-06-14T13:36:34;24.00;99.90
25825;DHT22;13658;44.534;18.694;2023-06-14T13:39:00;24.00;99.90
25825;DHT22;13658;44.534;18.694;2023-06-14T13:41:28;24.00;99.90
25825;DHT22;13658;44.534;18.694;2023-06-14T13:44:00;23.90;99.90
25825;DHT22;13658;44.534;18.694;2023-06-14T13:46:26;24.10;99.90
25825;DHT22;13658;44.534;18.694;2023-06-14T13:48:52;24.00;99.90
25825;DHT22;13658;44.534;18.694;2023-06-14T13:51:18;24.20;99.90
25825;DHT22;13658;44.534;18.694;2023-06-14T13:53:48;24.10;99.90
25825;DHT22;13658;44.534;18.694;2023-06-14T13:56:15;24.00;99.90
25825;DHT22;13658;44.534;18.694;2023-06-14T13:58:41;23.80;99.90
25825;DHT22;13658;44.534;18.694;2023-06-14T14:01:08;23.70;99.90
25825;DHT22;13658;44.534;18.694;2023-06-14T14:03:35;23.60;99.90
25825;DHT22;13658;44.534;18.694;2023-06-14T14:06:01;23.70;99.90
25825;DHT22;13658;44.534;18.694;2023-06-14T14:08:28;23.80;99.90
25825;DHT22;13658;44.534;18.694;2023-06-14T14:10:54;23.80;99.90
25825;DHT22;13658;44.534;18.694;2023-06-14T14:13:20;23.90;99.90
25825;DHT22;13658;44.534;18.694;2023-06-14T14:15:47;23.90;99.90
25825;DHT22;13658;44.534;18.694;2023-06-14T14:18:14;23.80;99.90
25825;DHT22;13658;44.534;18.694;2023-06-14T14:20:41;23.90;99.90
25825;DHT22;13658;44.534;18.694;2023-06-14T14:23:07;23.90;99.90
25825;DHT22;13658;44.534;18.694;2023-06-14T14:25:33;23.90;99.90
25825;DHT22;13658;44.534;18.694;2023-06-14T14:27:59;23.80;99.90
25825;DHT22;13658;44.534;18.694;2023-06-14T14:30:25;23.80;99.90
25825;DHT22;13658;44.534;18.694;2023-06-14T14:32:51;23.80;99.90
25825;DHT22;13658;44.534;18.694;2023-06-14T14:35:18;23.70;99.90
25825;DHT22;13658;44.534;18.694;2023-06-14T14:37:44;23.60;99.90
25825;DHT22;13658;44.534;18.694;2023-06-14T14:40:11;23.60;99.90
25825;DHT22;13658;44.534;18.694;2023-06-14T14:42:37;23.60;99.90
25825;DHT22;13658;44.534;18.694;2023-06-14T14:45:03;23.50;99.90
25825;DHT22;13658;44.534;18.694;2023-06-14T14:47:30;23.50;99.90
25825;DHT22;13658;44.534;18.694;2023-06-14T14:49:56;23.30;99.90
25825;DHT22;13658;44.534;18.694;2023-06-14T14:52:22;23.30;99.90
25825;DHT22;13658;44.534;18.694;2023-06-14T14:54:48;23.30;99.90
25825;DHT22;13658;44.534;18.694;2023-06-14T14:57:14;23.40;99.90
25825;DHT22;13658;44.534;18.694;2023-06-14T14:59:40;23.50;99.90
25825;DHT22;13658;44.534;18.694;2023-06-14T15:02:08;23.50;99.90
25825;DHT22;13658;44.534;18.694;2023-06-14T15:04:46;23.60;99.90
25825;DHT22;13658;44.534;18.694;2023-06-14T15:07:12;23.80;99.90
25825;DHT22;13658;44.534;18.694;2023-06-14T15:09:38;23.80;99.90
25825;DHT22;13658;44.534;18.694;2023-06-14T15:12:04;23.70;99.90
25825;DHT22;13658;44.534;18.694;2023-06-14T15:14:31;23.70;99.90
25825;DHT22;13658;44.534;18.694;2023-06-14T15:16:56;23.70;99.90
25825;DHT22;13658;44.534;18.694;2023-06-14T15:19:23;23.60;99.90
25825;DHT22;13658;44.534;18.694;2023-06-14T15:21:49;23.60;99.90
25825;DHT22;13658;44.534;18.694;2023-06-14T15:24:15;23.60;99.90
25825;DHT22;13658;44.534;18.694;2023-06-14T15:26:41;23.50;99.90
25825;DHT22;13658;44.534;18.694;2023-06-14T15:29:07;23.40;99.90
25825;DHT22;13658;44.534;18.694;2023-06-14T15:31:33;23.40;99.90
25825;DHT22;13658;44.534;18.694;2023-06-14T15:33:59;23.30;99.90
25825;DHT22;13658;44.534;18.694;2023-06-14T15:36:25;23.30;99.90